Terminal Aerodrome Forecast
Issued by NWS

Home | Current Version | Previous Version | Text Only | Print | Product List | Glossary On
Versions: 1 2 3 4 5 6 7 8 9 10 11 12 13 14 15 16
613
FTUS44 KLIX 201723
TAFMSY
TAF
KMSY 201723Z 2018/2124 04008KT P6SM SCT250
     FM202300 09006KT P6SM SCT250
     FM210800 08008KT P6SM BKN100
     FM211500 12013KT P6SM BKN025 BKN100
     FM211900 12015KT P6SM OVC020=

USA.gov is the U.S. government's official web portal to all federal, state and local government web resources and services.